Pagrindinis puslapis
METAR-TAF:

METAR-TAF

Oro uostai :

Jämsä, Suomija

platuma: 61-51N, ilguma: 024-48E, Aukštis: 143 m

Dabartinis oras

Ataskaita buvo paskelbta 18 minutes, ne 21:50 UTC
Vėjas 9 kt iš Pietų
Temperatūra 0°C
Drėgmė 93%
Slėgis 1023 hPa
Matomumas 10 km arba daugiau
Apsiniaukę ne aukštis 700 ft

METAR: EFHA 022150Z AUTO 17009KT 9999 OVC007 M00/M01 Q1023

Laikas: 00:08 (22:08 UTC)

Prognozė

Ataskaita buvo paskelbta 4 valandos ir 35 minutes, ne 17:33 UTC
Prognozė galioja nuo 02 metu 18 UTC su 02 metu 21 UTC
Vėjas 6 kt iš Pietų
Matomumas 10 km arba daugiau
Su prošvaistėmis ne aukštis 900 ft
lietus
Laikinai
nuo 02 metu 18 UTC su 02 metu 21 UTC
Matomumas: 7000 m
Su prošvaistėmis ne aukštis 1200 ft
sniegas, lietus

TAF: EFHA 021733Z 0218/0221 18006KT 9999 -SHRA BKN009 TEMPO 0218/0221 7000 -SNRA BKN012

Orai ataskaitas ir orų prognozės (METAR, TAF).

turimą stotys yra geltonos ir raudonos taškus žemėlapyje.

Perkelti pele per norėdami pamatyti stoties vardą.

Tada spustelėkite, norėdami matyti oro stebėjimo ir prognozės.

Norėdami pakeisti žemėlapį: spustelėkite ant žalios mygtukų su juodo kryžiaus žemyn,; žalią mygtuką su brūkšneliu, jei norite nutolinti; arba žalių rodyklių gretimoms žemėlapius.


METAR-TAF: